Time;durP1;ratioP1;P1;durP2;ratioP2;P2;SDS_P1;SDS_P2;PMS_P1;PMS_P2;Temp;Humidity;BMP_temperature;BMP_pressure;BME280_temperature;BME280_humidity;BME280_pressure;Samples;Min_cycle;Max_cycle;Signal;HPM_P1;HPM_P2
2023/10/18 00:01:05;;;;;;;3.45;2.70;;;15.90;69.70;;;;;;5134396;27;20615;-65
2023/10/18 00:03:31;;;;;;;3.45;2.45;;;15.90;69.70;;;;;;5134162;27;20183;-65
2023/10/18 00:06:11;;;;;;;3.10;2.80;;;15.90;69.70;;;;;;5133681;27;20179;-65
2023/10/18 00:08:38;;;;;;;2.83;2.60;;;15.90;69.70;;;;;;5134206;27;20207;-65
2023/10/18 00:11:04;;;;;;;3.08;2.85;;;15.90;69.70;;;;;;5133834;27;20564;-65
2023/10/18 00:13:31;;;;;;;2.92;2.72;;;15.80;69.60;;;;;;5133308;27;20175;-65
2023/10/18 00:16:03;;;;;;;3.42;3.03;;;15.80;69.60;;;;;;5134114;27;20243;-65
2023/10/18 00:18:28;;;;;;;3.20;3.00;;;15.80;69.60;;;;;;5133730;27;20180;-64
2023/10/18 00:21:04;;;;;;;3.85;3.05;;;15.80;69.50;;;;;;5133509;27;20186;-65
2023/10/18 00:23:33;;;;;;;3.00;2.80;;;15.80;69.50;;;;;;5134014;27;20176;-65
2023/10/18 00:26:08;;;;;;;3.03;2.72;;;15.80;69.60;;;;;;5133893;27;20225;-65
2023/10/18 00:28:34;;;;;;;3.38;3.05;;;15.80;69.50;;;;;;5133683;27;20204;-66
2023/10/18 00:31:10;;;;;;;3.30;3.00;;;15.80;69.60;;;;;;5133659;27;20168;-65
2023/10/18 00:33:36;;;;;;;2.80;2.60;;;15.80;69.50;;;;;;5133153;27;20176;-64
2023/10/18 00:36:03;;;;;;;3.80;3.10;;;15.70;69.50;;;;;;5133770;27;20567;-65
2023/10/18 00:38:28;;;;;;;3.08;2.88;;;15.80;69.60;;;;;;5133583;27;20524;-65
2023/10/18 00:40:56;;;;;;;2.90;2.65;;;15.70;69.50;;;;;;5132814;27;20174;-65
2023/10/18 00:43:28;;;;;;;3.38;3.10;;;15.70;69.50;;;;;;5132965;27;20184;-64
2023/10/18 00:45:54;;;;;;;2.67;2.47;;;15.80;69.50;;;;;;5133883;27;20187;-64
2023/10/18 00:48:25;;;;;;;3.25;2.95;;;15.70;69.50;;;;;;5132743;27;20231;-64
2023/10/18 00:50:55;;;;;;;2.90;2.70;;;15.80;69.50;;;;;;5133738;27;20220;-65
2023/10/18 00:53:22;;;;;;;4.50;3.10;;;15.70;69.50;;;;;;5133438;27;20172;-65
2023/10/18 00:55:48;;;;;;;3.00;2.80;;;15.70;69.50;;;;;;5132507;28;20172;-65
2023/10/18 00:58:15;;;;;;;3.15;2.95;;;15.70;69.50;;;;;;5132959;28;20177;-66
2023/10/18 01:00:41;;;;;;;3.78;3.47;;;15.70;69.50;;;;;;5133616;28;20173;-65
2023/10/18 01:03:09;;;;;;;3.20;2.90;;;15.70;69.50;;;;;;5114467;28;20211;-66
2023/10/18 01:05:35;;;;;;;3.25;2.83;;;15.70;69.50;;;;;;5133292;28;20172;-65
2023/10/18 01:08:06;;;;;;;3.40;3.10;;;15.70;69.50;;;;;;5133008;28;20693;-65
2023/10/18 01:10:33;;;;;;;3.30;3.00;;;15.70;69.50;;;;;;5132481;28;20165;-65
2023/10/18 01:13:01;;;;;;;2.90;2.70;;;15.70;69.50;;;;;;5114885;28;20184;-66
2023/10/18 01:15:28;;;;;;;3.53;3.22;;;15.70;69.50;;;;;;5132215;28;20622;-65
2023/10/18 01:17:54;;;;;;;3.13;2.83;;;15.70;69.40;;;;;;5133342;28;20191;-64
2023/10/18 01:22:57;;;;;;;2.78;2.58;;;15.70;69.50;;;;;;5132642;28;20244;-65
2023/10/18 01:25:24;;;;;;;3.35;3.13;;;15.60;69.40;;;;;;5133129;28;20209;-64
2023/10/18 01:27:49;;;;;;;3.47;2.83;;;15.60;69.40;;;;;;5133348;28;20215;-64
2023/10/18 01:30:16;;;;;;;2.97;2.78;;;15.60;69.40;;;;;;5132176;28;20173;-65
2023/10/18 01:32:42;;;;;;;3.05;2.80;;;15.60;69.40;;;;;;5133063;28;20185;-64
2023/10/18 01:35:08;;;;;;;2.75;2.55;;;15.60;69.40;;;;;;5132966;28;20167;-64
2023/10/18 01:37:34;;;;;;;3.45;3.15;;;15.60;69.40;;;;;;5132152;28;20169;-64
2023/10/18 01:40:19;;;;;;;3.03;2.83;;;15.60;69.40;;;;;;5133227;28;20237;-64
2023/10/18 01:42:45;;;;;;;2.97;2.78;;;15.60;69.40;;;;;;5132994;28;20645;-64
2023/10/18 01:45:11;;;;;;;3.17;2.90;;;15.60;69.40;;;;;;5132359;28;20180;-64
2023/10/18 01:47:40;;;;;;;3.00;2.80;;;15.60;69.40;;;;;;5132859;28;20609;-64
2023/10/18 01:50:08;;;;;;;3.38;3.10;;;15.60;69.40;;;;;;5132696;28;20257;-64
2023/10/18 01:52:37;;;;;;;3.03;2.72;;;15.60;69.40;;;;;;5131933;28;20231;-64
2023/10/18 01:55:06;;;;;;;3.40;3.10;;;15.60;69.40;;;;;;5132937;27;20191;-65
2023/10/18 01:57:32;;;;;;;3.30;3.05;;;15.60;69.40;;;;;;5135977;27;20558;-65
2023/10/18 01:59:58;;;;;;;3.00;2.80;;;15.60;69.40;;;;;;5136602;27;20172;-65
2023/10/18 02:02:23;;;;;;;4.07;3.13;;;15.50;69.40;;;;;;5136415;27;20241;-64
2023/10/18 02:04:49;;;;;;;3.03;2.83;;;15.50;69.30;;;;;;5135905;27;20169;-65
2023/10/18 02:07:17;;;;;;;3.40;3.10;;;15.60;69.40;;;;;;5136047;27;20682;-65
2023/10/18 02:09:49;;;;;;;3.20;3.00;;;15.60;69.40;;;;;;5136551;27;20195;-64
2023/10/18 02:12:21;;;;;;;3.65;3.35;;;15.50;69.30;;;;;;5135611;27;20181;-64
2023/10/18 02:14:47;;;;;;;3.40;3.10;;;15.60;69.40;;;;;;5136346;27;20184;-65
2023/10/18 02:17:13;;;;;;;3.30;3.00;;;15.50;69.40;;;;;;5136059;27;20176;-64
2023/10/18 02:19:39;;;;;;;3.15;2.95;;;15.50;69.30;;;;;;5135614;27;20169;-65
2023/10/18 02:22:07;;;;;;;3.40;3.10;;;15.50;69.30;;;;;;5136383;27;20168;-64
2023/10/18 02:24:36;;;;;;;3.22;2.90;;;15.50;69.40;;;;;;5136325;27;20177;-65
2023/10/18 02:27:02;;;;;;;3.50;3.20;;;15.50;69.30;;;;;;5135233;27;20505;-64
2023/10/18 02:29:39;;;;;;;3.25;3.00;;;15.50;69.30;;;;;;5135941;27;20260;-64
2023/10/18 02:32:23;;;;;;;3.25;2.85;;;15.50;69.30;;;;;;5136195;27;20177;-64
2023/10/18 02:34:52;;;;;;;3.35;3.15;;;15.50;69.30;;;;;;5135331;27;20657;-64
2023/10/18 02:37:19;;;;;;;3.50;3.20;;;15.50;69.30;;;;;;5135878;27;21068;-64
2023/10/18 02:39:45;;;;;;;3.47;3.17;;;15.50;69.40;;;;;;5135175;27;20169;-64
2023/10/18 02:42:13;;;;;;;3.13;2.92;;;15.50;69.40;;;;;;5135555;27;20180;-64
2023/10/18 02:44:42;;;;;;;3.40;3.10;;;15.50;69.30;;;;;;5136056;27;20173;-64
2023/10/18 02:47:16;;;;;;;3.03;2.83;;;15.50;69.30;;;;;;5135056;27;20221;-64
2023/10/18 02:49:45;;;;;;;3.17;2.97;;;15.50;69.30;;;;;;5135754;27;20665;-64
2023/10/18 02:52:12;;;;;;;3.55;3.28;;;15.50;69.40;;;;;;5135246;27;20713;-64
2023/10/18 02:54:39;;;;;;;3.20;2.90;;;15.40;69.20;;;;;;5134962;27;20630;-65
2023/10/18 02:57:05;;;;;;;3.35;3.13;;;15.40;69.20;;;;;;5135725;27;20524;-65
2023/10/18 02:59:31;;;;;;;2.92;2.72;;;15.50;69.30;;;;;;5135736;27;20634;-65
2023/10/18 03:01:57;;;;;;;3.40;3.13;;;15.40;69.20;;;;;;5134979;27;20161;-64
2023/10/18 03:04:23;;;;;;;3.22;2.97;;;15.40;69.60;;;;;;5135651;27;20191;-64
2023/10/18 03:06:52;;;;;;;3.20;2.90;;;15.40;69.30;;;;;;5135110;27;20177;-65
2023/10/18 03:09:26;;;;;;;3.17;2.88;;;15.40;69.30;;;;;;5134333;27;20216;-65
2023/10/18 03:11:56;;;;;;;3.20;3.00;;;15.40;69.30;;;;;;5135623;27;20169;-64
2023/10/18 03:14:41;;;;;;;3.35;3.05;;;15.40;69.20;;;;;;5135283;27;20175;-64
2023/10/18 03:17:22;;;;;;;3.50;3.20;;;15.40;69.30;;;;;;5134166;27;20213;-64
2023/10/18 03:19:54;;;;;;;3.25;3.00;;;15.40;69.30;;;;;;5135183;27;20180;-64
2023/10/18 03:22:20;;;;;;;2.55;2.40;;;15.40;69.30;;;;;;5134358;27;20174;-65
2023/10/18 03:24:50;;;;;;;3.55;3.25;;;15.40;69.30;;;;;;5134990;27;20730;-64
2023/10/18 03:27:16;;;;;;;3.20;2.95;;;15.40;69.20;;;;;;5134727;27;20176;-64
2023/10/18 03:29:43;;;;;;;3.50;3.20;;;15.40;69.20;;;;;;5134383;27;20172;-64
2023/10/18 03:32:14;;;;;;;2.88;2.67;;;15.40;69.20;;;;;;5134558;27;20219;-64
2023/10/18 03:34:41;;;;;;;3.10;2.90;;;15.30;69.20;;;;;;5134779;27;20208;-66
2023/10/18 03:37:07;;;;;;;3.50;3.20;;;15.40;69.20;;;;;;5134066;27;20247;-65
2023/10/18 03:39:33;;;;;;;3.22;3.00;;;15.30;69.20;;;;;;5134555;27;20618;-64
2023/10/18 03:41:59;;;;;;;3.45;3.15;;;15.40;69.20;;;;;;5134612;27;20260;-64
2023/10/18 03:44:28;;;;;;;3.08;2.88;;;15.40;69.30;;;;;;5133837;27;20207;-64
2023/10/18 03:52:01;;;;;;;3.30;3.10;;;15.30;69.20;;;;;;5133936;27;20280;-64
2023/10/18 03:54:28;;;;;;;3.40;3.10;;;15.30;69.20;;;;;;5134507;27;20187;-64
2023/10/18 03:56:54;;;;;;;4.30;3.17;;;15.30;69.20;;;;;;5116285;27;20173;-65
2023/10/18 03:59:23;;;;;;;4.43;3.38;;;15.30;69.20;;;;;;5133517;27;20178;-64
2023/10/18 04:04:37;;;;;;;3.35;3.05;;;15.30;69.20;;;;;;5133453;27;20662;-65
2023/10/18 04:07:12;;;;;;;3.63;3.33;;;15.30;69.20;;;;;;5134162;27;20185;-65
2023/10/18 04:10:27;;;;;;;3.70;3.40;;;15.30;69.30;;;;;;5134062;27;20803;-64
2023/10/18 04:12:27;;;;;;;3.67;3.38;;;15.30;69.20;;;;;;5115261;27;20306;-64
2023/10/18 04:14:55;;;;;;;4.00;3.40;;;15.30;69.20;;;;;;5134280;27;20255;-64
2023/10/18 04:17:36;;;;;;;3.45;3.15;;;15.30;69.20;;;;;;5133764;27;20642;-64
2023/10/18 04:20:12;;;;;;;4.15;3.70;;;15.30;69.20;;;;;;5132653;27;20650;-64
2023/10/18 04:22:38;;;;;;;3.50;3.20;;;15.30;69.20;;;;;;5134147;27;20176;-65
2023/10/18 04:25:14;;;;;;;3.78;3.47;;;15.30;69.20;;;;;;5133935;27;20184;-64
2023/10/18 04:27:40;;;;;;;3.75;3.42;;;15.30;69.20;;;;;;5133852;27;20215;-64
2023/10/18 04:30:06;;;;;;;3.65;3.35;;;15.30;69.20;;;;;;5133669;27;20181;-64
2023/10/18 04:32:32;;;;;;;3.92;3.60;;;15.20;69.10;;;;;;5132777;27;20172;-65
2023/10/18 04:34:59;;;;;;;3.47;3.28;;;15.20;69.10;;;;;;5133931;27;20168;-65
2023/10/18 04:37:26;;;;;;;3.30;3.00;;;15.20;69.10;;;;;;5133579;27;20639;-64
2023/10/18 04:39:53;;;;;;;3.13;2.92;;;15.30;69.20;;;;;;5133114;27;20735;-65
2023/10/18 04:42:19;;;;;;;3.35;3.05;;;15.20;69.10;;;;;;5133173;27;20176;-63
2023/10/18 04:44:49;;;;;;;3.17;2.97;;;15.20;69.10;;;;;;5132983;27;20209;-63
2023/10/18 04:47:14;;;;;;;2.85;2.65;;;15.20;69.10;;;;;;5132570;27;20212;-63
2023/10/18 04:50:00;;;;;;;3.67;3.38;;;15.20;69.10;;;;;;5133573;27;20240;-63
2023/10/18 04:52:40;;;;;;;3.97;3.65;;;15.20;69.10;;;;;;5133301;27;20299;-63
2023/10/18 04:55:11;;;;;;;3.47;3.17;;;15.20;69.10;;;;;;5132746;27;20211;-64
2023/10/18 04:57:39;;;;;;;3.47;3.15;;;15.20;69.10;;;;;;5133437;28;20171;-65
2023/10/18 05:00:18;;;;;;;3.40;3.17;;;15.20;69.10;;;;;;5133437;28;20184;-63
2023/10/18 05:02:45;;;;;;;3.50;3.20;;;15.20;69.10;;;;;;5132892;28;20179;-63
2023/10/18 05:05:11;;;;;;;3.80;3.40;;;15.20;69.00;;;;;;5133271;28;20229;-64
2023/10/18 05:07:43;;;;;;;3.85;3.55;;;15.20;69.00;;;;;;5132649;28;20585;-64
2023/10/18 05:10:14;;;;;;;3.65;3.35;;;15.30;69.00;;;;;;5133107;28;20180;-65
2023/10/18 05:15:33;;;;;;;3.50;3.20;;;15.30;68.90;;;;;;5132514;28;20718;-64
2023/10/18 05:18:15;;;;;;;3.60;3.30;;;15.40;68.90;;;;;;5133227;28;20172;-65
2023/10/18 05:23:21;;;;;;;2.95;2.75;;;15.30;68.70;;;;;;5132496;28;20736;-64
2023/10/18 05:25:47;;;;;;;3.47;3.10;;;15.40;68.70;;;;;;5133392;28;20172;-64
2023/10/18 05:28:16;;;;;;;4.38;3.97;;;15.40;68.70;;;;;;5132843;28;20219;-63
2023/10/18 05:41:28;;;;;;;3.17;2.97;;;15.30;68.70;;;;;;5136919;27;20203;-63
2023/10/18 05:44:00;;;;;;;3.22;2.92;;;15.30;68.70;;;;;;5136494;27;20173;-63
2023/10/18 05:46:27;;;;;;;3.55;3.25;;;15.30;68.80;;;;;;5136979;27;20188;-63
2023/10/18 05:48:57;;;;;;;3.78;3.47;;;15.30;68.90;;;;;;5137015;27;20226;-63
2023/10/18 05:52:16;;;;;;;3.40;3.10;;;15.20;68.80;;;;;;5135943;27;20224;-64
2023/10/18 05:54:15;;;;;;;3.45;3.17;;;15.30;68.90;;;;;;5127999;27;20195;-64
2023/10/18 05:56:41;;;;;;;3.80;3.50;;;15.20;68.80;;;;;;5136169;27;20228;-64
2023/10/18 06:01:47;;;;;;;3.50;3.15;;;15.20;68.80;;;;;;5136742;27;20183;-64
2023/10/18 06:04:14;;;;;;;3.28;3.03;;;15.20;68.80;;;;;;5135483;27;20181;-64
2023/10/18 06:06:40;;;;;;;3.50;3.20;;;15.20;68.80;;;;;;5136541;27;20259;-64
2023/10/18 06:09:13;;;;;;;3.47;3.17;;;15.30;68.90;;;;;;5136455;27;20291;-64
2023/10/18 06:11:39;;;;;;;2.90;2.70;;;15.30;68.60;;;;;;5135671;27;20251;-64
2023/10/18 06:14:16;;;;;;;3.55;3.25;;;15.40;68.50;;;;;;5136344;27;20267;-64
2023/10/18 06:16:42;;;;;;;3.25;2.97;;;15.60;68.40;;;;;;5136381;27;20634;-64
2023/10/18 06:19:11;;;;;;;2.90;2.70;;;15.80;68.00;;;;;;5135497;27;20638;-64
2023/10/18 06:21:37;;;;;;;2.67;2.47;;;16.00;67.70;;;;;;5136399;27;20173;-63
2023/10/18 06:24:10;;;;;;;2.70;2.50;;;16.20;67.30;;;;;;5135994;27;20247;-63
2023/10/18 06:26:38;;;;;;;3.63;2.20;;;16.40;66.80;;;;;;5135491;27;20172;-63
2023/10/18 06:29:11;;;;;;;3.10;2.78;;;16.60;66.30;;;;;;5135870;27;20738;-63
2023/10/18 06:31:40;;;;;;;2.70;2.50;;;16.80;66.00;;;;;;5136275;27;20233;-64
2023/10/18 06:34:10;;;;;;;2.25;2.15;;;17.10;65.20;;;;;;5135323;27;20202;-63
2023/10/18 06:36:38;;;;;;;2.20;1.85;;;17.30;64.60;;;;;;5135913;27;20180;-64
2023/10/18 06:39:05;;;;;;;2.25;2.05;;;17.40;64.10;;;;;;5135201;27;20188;-63
2023/10/18 06:41:31;;;;;;;2.00;1.90;;;17.60;63.90;;;;;;5134419;27;20177;-63
2023/10/18 06:43:59;;;;;;;2.35;2.15;;;17.70;63.50;;;;;;5136091;27;20176;-63
2023/10/18 06:46:28;;;;;;;2.22;2.13;;;17.70;63.50;;;;;;5134907;27;20678;-63
2023/10/18 06:48:55;;;;;;;2.50;2.17;;;17.70;63.40;;;;;;5136033;27;20216;-63
2023/10/18 06:51:30;;;;;;;1.80;1.70;;;17.80;63.40;;;;;;5135414;27;20232;-63
2023/10/18 06:54:03;;;;;;;1.90;1.80;;;17.80;63.40;;;;;;5135002;27;20224;-64
2023/10/18 06:56:32;;;;;;;2.33;2.00;;;17.70;64.20;;;;;;5135403;27;20255;-64
2023/10/18 06:59:07;;;;;;;2.45;1.90;;;17.70;63.40;;;;;;5135854;27;20169;-64
2023/10/18 07:01:42;;;;;;;2.10;1.90;;;17.60;63.60;;;;;;5134845;27;20183;-63
2023/10/18 07:04:27;;;;;;;2.10;2.00;;;17.60;63.80;;;;;;5135455;27;20532;-64
2023/10/18 07:06:52;;;;;;;2.20;2.00;;;17.60;63.80;;;;;;5135508;27;20180;-64
2023/10/18 07:09:31;;;;;;;2.00;1.90;;;17.60;64.00;;;;;;5134601;27;20219;-64
2023/10/18 07:12:10;;;;;;;2.20;1.80;;;17.50;63.90;;;;;;5135566;27;20273;-64
2023/10/18 07:14:39;;;;;;;3.22;2.17;;;17.60;64.00;;;;;;5134677;27;20211;-64
2023/10/18 07:17:09;;;;;;;1.92;1.83;;;17.60;63.90;;;;;;5135168;27;20172;-64
2023/10/18 07:19:50;;;;;;;2.00;1.90;;;17.60;63.90;;;;;;5134733;27;20177;-64
2023/10/18 07:22:20;;;;;;;1.80;1.70;;;17.70;63.90;;;;;;5134368;27;20631;-64
2023/10/18 07:24:55;;;;;;;1.90;1.77;;;17.60;64.00;;;;;;5135003;27;20534;-64
2023/10/18 07:27:23;;;;;;;2.25;2.03;;;17.70;64.00;;;;;;5134638;27;20171;-64
2023/10/18 07:29:49;;;;;;;2.33;2.13;;;17.70;63.90;;;;;;5134049;27;20280;-64
2023/10/18 07:32:20;;;;;;;4.13;2.05;;;17.60;64.00;;;;;;5134799;27;20224;-64
2023/10/18 07:34:46;;;;;;;2.05;1.85;;;17.60;64.30;;;;;;5135090;27;20179;-64
2023/10/18 07:37:17;;;;;;;2.08;1.85;;;17.50;64.40;;;;;;5133782;27;20176;-64
2023/10/18 07:39:49;;;;;;;1.95;1.85;;;17.50;65.10;;;;;;5134768;27;20260;-65
2023/10/18 07:42:19;;;;;;;2.50;1.90;;;17.50;65.10;;;;;;5133680;27;20179;-64
2023/10/18 07:44:46;;;;;;;2.40;2.20;;;17.50;65.20;;;;;;5134876;27;20176;-64
2023/10/18 07:47:17;;;;;;;2.75;2.28;;;17.50;66.00;;;;;;5134483;27;20206;-63
2023/10/18 07:49:45;;;;;;;3.60;2.58;;;17.40;65.50;;;;;;5133808;27;20208;-63
2023/10/18 07:52:11;;;;;;;2.00;1.90;;;17.50;65.40;;;;;;5134019;27;20297;-63
2023/10/18 07:54:37;;;;;;;2.20;2.00;;;17.50;65.50;;;;;;5133394;27;20568;-64
2023/10/18 07:57:03;;;;;;;4.40;2.00;;;17.40;65.60;;;;;;5133822;27;20178;-64
2023/10/18 07:59:32;;;;;;;3.55;2.25;;;17.40;65.70;;;;;;5134178;27;20172;-64
2023/10/18 08:02:09;;;;;;;2.20;1.83;;;17.30;65.80;;;;;;5116486;27;20168;-64
2023/10/18 08:04:36;;;;;;;2.85;2.08;;;17.30;66.00;;;;;;5133920;27;20255;-64
2023/10/18 08:07:05;;;;;;;2.20;2.03;;;17.30;66.30;;;;;;5134061;27;20173;-64
2023/10/18 08:09:31;;;;;;;3.55;2.22;;;17.30;66.40;;;;;;5134222;27;20243;-64
2023/10/18 08:12:05;;;;;;;3.60;2.28;;;17.30;66.50;;;;;;5133623;27;20176;-64
2023/10/18 08:14:31;;;;;;;1.70;1.60;;;17.30;66.40;;;;;;5133965;27;20188;-65
2023/10/18 08:16:57;;;;;;;3.28;2.10;;;17.30;66.30;;;;;;5134151;27;20323;-64
2023/10/18 08:19:23;;;;;;;4.72;2.00;;;17.30;66.30;;;;;;5133234;27;20176;-64
2023/10/18 08:24:34;;;;;;;2.50;2.05;;;17.30;66.30;;;;;;5133351;27;20271;-64
2023/10/18 08:27:09;;;;;;;4.35;1.92;;;17.30;66.30;;;;;;5133677;27;20645;-65
2023/10/18 08:29:38;;;;;;;2.05;1.90;;;17.30;66.50;;;;;;5133491;27;20691;-64
2023/10/18 08:32:51;;;;;;;2.03;1.75;;;17.30;66.60;;;;;;5132927;27;20179;-64
2023/10/18 08:34:50;;;;;;;3.22;1.88;;;17.30;66.60;;;;;;5119381;27;20206;-64
2023/10/18 08:37:16;;;;;;;2.08;1.88;;;17.20;66.60;;;;;;5133535;27;20600;-64
2023/10/18 08:39:52;;;;;;;3.63;1.98;;;17.20;66.60;;;;;;5133179;27;20173;-64
2023/10/18 08:42:24;;;;;;;2.95;1.98;;;17.20;66.60;;;;;;5133454;27;20187;-61
2023/10/18 08:44:55;;;;;;;2.92;2.13;;;17.20;66.90;;;;;;5116407;27;20211;-61
2023/10/18 08:47:23;;;;;;;2.72;2.00;;;17.20;67.00;;;;;;5098883;28;20631;-64
2023/10/18 08:49:51;;;;;;;2.53;2.30;;;17.20;66.80;;;;;;5115395;27;20244;-61
2023/10/18 08:52:20;;;;;;;2.47;2.25;;;17.20;66.80;;;;;;5115224;28;20694;-62
2023/10/18 08:54:46;;;;;;;3.55;2.40;;;17.20;66.70;;;;;;5132685;27;20229;-65
2023/10/18 08:57:12;;;;;;;2.88;2.10;;;17.30;66.60;;;;;;5114867;28;20688;-65
2023/10/18 08:59:50;;;;;;;2.45;1.90;;;17.30;66.50;;;;;;5097649;28;20164;-64
2023/10/18 09:02:21;;;;;;;2.88;2.55;;;17.30;66.50;;;;;;5133236;28;20172;-65
2023/10/18 09:04:48;;;;;;;4.07;2.47;;;17.30;66.50;;;;;;5134840;27;20175;-63
2023/10/18 09:07:22;;;;;;;5.07;2.30;;;17.30;66.60;;;;;;5136769;27;20255;-65
2023/10/18 09:09:55;;;;;;;4.95;2.50;;;17.30;66.80;;;;;;5104088;27;20247;-66
2023/10/18 09:17:47;;;;;;;2.40;2.20;;;17.20;66.80;;;;;;5137378;27;20586;-65
2023/10/18 09:20:15;;;;;;;4.05;2.60;;;17.20;66.70;;;;;;5137038;27;20180;-65
2023/10/18 09:22:47;;;;;;;4.05;2.55;;;17.20;66.60;;;;;;5136681;27;20172;-65
2023/10/18 09:25:13;;;;;;;3.38;2.65;;;17.20;66.60;;;;;;5137480;27;20313;-65
2023/10/18 09:27:38;;;;;;;2.47;2.28;;;17.20;66.40;;;;;;5118371;27;20214;-65
2023/10/18 09:30:10;;;;;;;2.58;2.35;;;17.10;66.40;;;;;;5118643;27;20196;-63
2023/10/18 09:32:36;;;;;;;2.75;2.15;;;17.20;66.40;;;;;;5137125;27;20539;-63
2023/10/18 09:35:07;;;;;;;3.40;2.53;;;17.20;66.40;;;;;;5136578;27;20177;-63
2023/10/18 09:37:35;;;;;;;2.28;2.08;;;17.20;66.30;;;;;;5137038;27;20228;-62
2023/10/18 09:40:04;;;;;;;3.30;2.45;;;17.20;66.30;;;;;;5136837;27;20546;-62
2023/10/18 09:42:30;;;;;;;3.58;2.30;;;17.30;66.40;;;;;;5136333;27;20757;-63
2023/10/18 09:44:55;;;;;;;2.40;2.05;;;17.30;66.40;;;;;;5136963;27;20649;-63
2023/10/18 09:47:25;;;;;;;3.50;2.20;;;17.30;66.40;;;;;;5136925;27;20164;-63
2023/10/18 09:49:51;;;;;;;3.03;2.20;;;17.40;66.50;;;;;;5118307;27;20215;-63
2023/10/18 09:52:17;;;;;;;4.85;2.33;;;17.40;66.50;;;;;;5136376;27;20224;-63
2023/10/18 09:54:49;;;;;;;3.20;2.45;;;17.40;66.60;;;;;;5118408;27;20176;-63
2023/10/18 09:57:23;;;;;;;3.35;2.55;;;17.40;66.50;;;;;;5135881;27;20258;-64
2023/10/18 09:59:49;;;;;;;2.35;2.15;;;17.40;66.60;;;;;;5119538;27;20614;-64
2023/10/18 10:02:15;;;;;;;2.50;2.10;;;17.40;66.70;;;;;;5101389;27;20222;-64
2023/10/18 10:04:43;;;;;;;2.42;2.22;;;17.40;66.70;;;;;;5100908;27;20260;-64
2023/10/18 10:09:59;;;;;;;4.53;2.38;;;17.40;66.80;;;;;;5120196;27;20637;-63
2023/10/18 10:12:28;;;;;;;2.60;2.30;;;17.30;66.90;;;;;;5103472;27;20168;-64
2023/10/18 10:14:53;;;;;;;2.28;2.08;;;17.30;67.90;;;;;;5118419;27;20180;-64
2023/10/18 10:17:19;;;;;;;3.35;2.08;;;17.30;67.00;;;;;;5134242;27;20169;-63
2023/10/18 10:19:48;;;;;;;2.10;1.90;;;17.30;67.10;;;;;;5118082;27;20169;-64
2023/10/18 10:22:15;;;;;;;2.42;2.22;;;17.30;67.20;;;;;;5100966;27;20219;-64
2023/10/18 10:24:51;;;;;;;2.42;2.22;;;17.30;67.20;;;;;;5117297;27;20256;-63
2023/10/18 10:30:03;;;;;;;2.67;2.28;;;17.30;67.30;;;;;;5135350;27;20233;-62
2023/10/18 10:32:29;;;;;;;3.13;2.45;;;17.20;67.30;;;;;;5135037;27;20177;-61
2023/10/18 10:35:17;;;;;;;2.97;2.00;;;17.20;67.20;;;;;;5135158;27;20178;-63
2023/10/18 10:37:49;;;;;;;3.05;2.17;;;17.20;67.20;;;;;;5134936;27;20188;-62
2023/10/18 10:43:02;;;;;;;3.55;1.80;;;17.30;67.20;;;;;;5135936;27;20195;-62
2023/10/18 10:45:38;;;;;;;2.35;1.90;;;17.20;67.20;;;;;;5117949;27;20168;-61
2023/10/18 10:51:13;;;;;;;2.97;1.98;;;17.30;67.10;;;;;;5135913;27;20218;-61
2023/10/18 10:53:54;;;;;;;2.10;1.90;;;17.40;67.00;;;;;;5135018;27;20192;-61
2023/10/18 10:56:30;;;;;;;3.03;2.38;;;17.40;66.70;;;;;;5135764;27;20207;-62
2023/10/18 11:01:57;;;;;;;2.88;2.45;;;17.40;66.70;;;;;;5135593;27;20180;-62
2023/10/18 11:04:25;;;;;;;2.67;2.45;;;17.30;66.70;;;;;;5135100;27;20180;-62
2023/10/18 11:07:13;;;;;;;2.38;1.63;;;17.40;66.70;;;;;;5135002;27;20199;-62
2023/10/18 11:09:40;;;;;;;2.95;2.42;;;17.40;66.70;;;;;;5135269;27;20611;-62
2023/10/18 11:12:13;;;;;;;1.80;1.70;;;17.40;66.60;;;;;;5117253;27;20175;-63
2023/10/18 11:14:41;;;;;;;2.92;2.30;;;17.50;66.70;;;;;;5134445;27;20173;-63
2023/10/18 11:19:51;;;;;;;3.42;2.20;;;17.50;66.50;;;;;;5134989;27;20205;-62
2023/10/18 11:22:19;;;;;;;14.38;5.45;;;17.50;66.50;;;;;;5134238;27;20177;-65
2023/10/18 11:24:49;;;;;;;8.35;5.10;;;17.50;66.60;;;;;;5135008;27;20189;-65
2023/10/18 11:27:21;;;;;;;8.35;4.55;;;17.50;66.60;;;;;;5133673;27;20646;-65
2023/10/18 11:29:47;;;;;;;7.88;4.10;;;17.50;66.60;;;;;;5135003;27;20212;-64
2023/10/18 11:32:18;;;;;;;10.27;4.55;;;17.50;66.70;;;;;;5116600;27;20167;-65
2023/10/18 11:34:46;;;;;;;7.65;4.68;;;17.60;66.70;;;;;;5134155;27;20180;-65
2023/10/18 11:37:34;;;;;;;8.10;4.75;;;17.60;66.80;;;;;;5134772;27;20257;-65
2023/10/18 11:40:12;;;;;;;7.97;4.47;;;17.60;66.70;;;;;;5134583;27;20658;-62
2023/10/18 11:43:07;;;;;;;11.43;5.15;;;17.60;66.70;;;;;;5133332;27;20623;-62
2023/10/18 11:45:33;;;;;;;9.45;5.78;;;17.60;66.70;;;;;;5134415;27;20655;-61
2023/10/18 11:48:02;;;;;;;8.63;5.18;;;17.50;66.60;;;;;;5134252;27;20219;-61
2023/10/18 11:50:47;;;;;;;8.43;5.38;;;17.50;66.70;;;;;;5133578;27;20180;-61
2023/10/18 11:53:17;;;;;;;9.23;5.70;;;17.50;66.80;;;;;;5134313;27;20224;-62
2023/10/18 11:56:05;;;;;;;7.80;4.90;;;17.40;66.70;;;;;;5133614;27;20631;-62
2023/10/18 11:58:32;;;;;;;10.07;5.50;;;17.40;66.70;;;;;;5134130;27;20177;-66
2023/10/18 12:01:06;;;;;;;9.75;5.80;;;17.40;66.60;;;;;;5134375;27;20542;-65
2023/10/18 12:03:38;;;;;;;13.93;5.60;;;17.40;66.40;;;;;;5133636;27;20251;-65
2023/10/18 12:06:04;;;;;;;8.23;5.10;;;17.40;66.30;;;;;;5134207;27;20187;-65
2023/10/18 12:08:40;;;;;;;11.68;5.95;;;17.40;66.20;;;;;;5115769;27;20245;-65
2023/10/18 12:11:09;;;;;;;8.35;5.50;;;17.40;66.30;;;;;;5115379;27;20251;-66
2023/10/18 12:13:34;;;;;;;9.55;5.55;;;17.40;66.30;;;;;;5134144;27;20251;-65
2023/10/18 12:16:00;;;;;;;10.25;4.90;;;17.40;66.40;;;;;;5133898;27;20309;-65
2023/10/18 12:18:28;;;;;;;9.95;5.03;;;17.40;66.50;;;;;;5133129;27;20233;-65
2023/10/18 12:20:54;;;;;;;9.82;5.47;;;17.30;66.60;;;;;;5134028;27;20206;-65
2023/10/18 12:23:20;;;;;;;8.40;4.95;;;17.40;66.70;;;;;;5133699;27;20242;-65
2023/10/18 12:25:45;;;;;;;6.65;5.07;;;17.40;66.70;;;;;;5133069;27;20172;-65
2023/10/18 12:28:35;;;;;;;7.90;4.45;;;17.40;66.60;;;;;;5133704;27;20235;-64
2023/10/18 12:31:09;;;;;;;6.40;4.63;;;17.40;66.60;;;;;;5132981;27;20177;-65
2023/10/18 12:33:35;;;;;;;6.85;4.47;;;17.40;66.60;;;;;;5133760;27;20180;-64
2023/10/18 12:36:00;;;;;;;7.05;4.50;;;17.40;66.50;;;;;;5133628;27;20253;-65
2023/10/18 12:38:31;;;;;;;7.60;4.68;;;17.40;66.50;;;;;;5133018;27;20196;-66
2023/10/18 12:43:44;;;;;;;7.05;4.07;;;17.40;66.50;;;;;;5133684;27;20228;-65
2023/10/18 12:46:15;;;;;;;7.75;4.65;;;17.40;66.50;;;;;;5132738;27;20195;-65
2023/10/18 12:48:43;;;;;;;8.25;4.43;;;17.40;66.40;;;;;;5133651;27;20223;-65
2023/10/18 12:51:12;;;;;;;6.30;3.90;;;17.40;66.30;;;;;;5133426;27;20224;-66
2023/10/18 12:56:31;;;;;;;5.97;4.32;;;17.40;66.30;;;;;;5133367;27;20175;-66
2023/10/18 13:04:07;;;;;;;5.03;4.18;;;17.40;66.40;;;;;;5133278;28;20179;-66
2023/10/18 13:06:41;;;;;;;6.28;3.78;;;17.50;66.40;;;;;;5132596;28;20176;-65
2023/10/18 13:09:18;;;;;;;5.55;3.92;;;17.50;66.40;;;;;;5133088;28;20225;-66
2023/10/18 13:11:52;;;;;;;7.40;4.28;;;17.50;66.40;;;;;;5133643;28;20172;-65
2023/10/18 13:14:31;;;;;;;7.80;4.22;;;17.40;66.30;;;;;;5132335;28;20592;-64
2023/10/18 13:16:58;;;;;;;4.70;3.67;;;17.40;66.30;;;;;;5133211;28;20172;-65
2023/10/18 13:19:25;;;;;;;5.20;3.80;;;17.40;66.40;;;;;;5133113;28;20219;-65
2023/10/18 13:21:50;;;;;;;4.70;4.20;;;17.30;66.40;;;;;;5132395;28;20168;-65
2023/10/18 13:24:28;;;;;;;4.78;3.63;;;17.30;66.50;;;;;;5133035;28;20543;-66
2023/10/18 13:26:59;;;;;;;5.65;3.47;;;17.30;66.60;;;;;;5132771;28;20176;-66
2023/10/18 13:31:51;;;;;;;4.70;3.70;;;17.20;66.50;;;;;;5133318;28;20183;-65
2023/10/18 13:34:19;;;;;;;5.20;3.53;;;17.30;66.50;;;;;;5131989;28;20176;-66
2023/10/18 13:36:46;;;;;;;5.68;3.83;;;17.30;66.60;;;;;;5133166;28;20229;-66
2023/10/18 13:39:12;;;;;;;4.82;4.05;;;17.30;66.50;;;;;;5132981;28;20184;-65
2023/10/18 13:41:39;;;;;;;7.05;3.63;;;17.40;66.60;;;;;;5132386;28;20187;-66
2023/10/18 13:44:04;;;;;;;6.07;3.33;;;17.40;66.50;;;;;;5133202;28;20181;-65
2023/10/18 13:46:30;;;;;;;4.80;3.72;;;17.40;66.50;;;;;;5133042;28;20200;-65
2023/10/18 13:48:59;;;;;;;5.00;3.95;;;17.40;66.60;;;;;;5132439;28;20212;-65
2023/10/18 13:51:25;;;;;;;3.42;3.13;;;17.40;66.60;;;;;;5135067;27;20307;-65
2023/10/18 13:53:51;;;;;;;5.53;4.00;;;17.30;66.70;;;;;;5137229;27;20256;-65
2023/10/18 13:56:18;;;;;;;4.05;3.65;;;17.30;66.70;;;;;;5135548;27;20627;-66
2023/10/18 13:58:43;;;;;;;4.07;3.38;;;17.30;66.70;;;;;;5136781;27;20169;-66
2023/10/18 14:01:18;;;;;;;4.07;3.10;;;17.40;66.80;;;;;;5136602;27;20172;-65
2023/10/18 14:03:44;;;;;;;5.20;3.35;;;17.30;66.70;;;;;;5136130;27;20172;-65
2023/10/18 14:06:10;;;;;;;4.38;3.50;;;17.30;66.80;;;;;;5135582;27;20399;-65